x

Ne St Martin - 330 Nm Ne St Martin Is (41044) Wave Buoy

7:50pm - Sat 1st Oct 2016 All times are UTC.

  • Sig Wave height 6.9ft
  • Swell Direction
  • Peak Period 8s
  • Average Period 6s
  • Wind
    18mph, 25mph gusts
  • Sea Temp 84°f
  • Air Temp 83°f
  • Sea Pressure 1012.4mb

More Historic Weather Station data

Upgrade to MSW Pro to gain access to the past 30 days of data for over 8000 Wavebouys and Weather Stations around the globe.

Join Pro

Comparision Forecast

View Surf forecast
   
Sat 10/01 7:50pm 7ft 8s 6s 18 25 mph 1012.4mb 84f 83f
7:40pm  -   -   -  20 25 mph 1012.4mb 84f 83f
7:30pm  -   -   -  18 22 mph 1012.4mb 84f 83f
7:20pm  -   -   -  18 22 mph 1012.5mb 84f 83f
7:10pm  -   -   -  18 20 mph 1012.5mb 84f 83f
7:00pm  -   -   -  16 20 mph 1012.5mb 84f 83f
6:50pm 7ft 8s 6s 18 22 mph 1012.5mb 84f 83f
6:40pm  -   -   -  18 22 mph 1012.5mb 84f 83f
6:30pm  -   -   -  18 22 mph 1012.8mb 84f 83f
6:20pm  -   -   -  18 22 mph 1012.6mb 84f 83f
6:10pm  -   -   -  18 22 mph 1012.8mb 84f 83f
6:00pm  -   -   -  20 25 mph 1013mb 84f 83f
5:50pm 7ft 8s 6s 20 22 mph 1013mb 84f 83f
5:40pm  -   -   -  13 22 mph 1013mb 84f 83f
5:30pm  -   -   -  13 22 mph 1013.3mb 84f 82f
5:20pm  -   -   -  18 25 mph 1013.3mb 84f 83f
5:10pm  -   -   -  16 20 mph 1013.3mb 84f 83f
5:00pm  -   -   -  16 20 mph 1013.5mb 84f 83f
4:50pm 7ft 8s 6s 18 20 mph 1013.6mb 84f 83f
4:40pm 7ft  -  6s 18 20 mph 1013.8mb 84f 83f
4:30pm  -   -   -  16 20 mph 1013.9mb - 83f
4:20pm  -   -   -  16 18 mph 1014mb 84f 83f
4:10pm  -   -   -  16 20 mph 1014mb 84f 83f
4:00pm  -   -   -  18 22 mph 1014mb 84f 83f
3:50pm 6.5ft 8s 6s 18 20 mph 1014.1mb 84f 83f
3:40pm 6.5ft  -  6s 16 20 mph 1014.3mb 84f 83f
3:30pm  -   -   -  18 22 mph 1014.4mb 84f 83f
3:20pm  -   -   -  18 20 mph 1014.4mb 84f 83f
3:10pm  -   -   -  16 20 mph 1014.4mb 84f 83f
3:00pm  -   -   -  18 20 mph 1014.5mb 84f 83f
2:50pm 6ft 8s 5s 18 22 mph 1014.5mb 84f 83f
2:40pm  -   -   -  18 22 mph 1014.6mb 84f 83f
2:30pm  -   -   -  20 25 mph 1014.6mb 84f 83f
2:20pm  -   -   -  18 22 mph 1014.6mb 84f 83f
2:10pm  -   -   -  20 22 mph 1014.9mb 84f 83f
2:00pm  -   -   -  20 25 mph 1015mb 84f 83f
1:50pm 6ft 8s 5s 20 25 mph 1015mb 84f 83f
1:40pm 6ft  -  5s 20 25 mph 1015mb 84f 83f
1:30pm  -   -   -  20 22 mph 1015mb 84f 83f
1:20pm  -   -   -  18 22 mph 1014.9mb 84f 83f
1:10pm  -   -   -  20 27 mph 1015mb 84f 83f
1:00pm  -   -   -  18 22 mph 1014.9mb 84f 83f
12:50pm 6ft  -  6s 20 25 mph 1015.3mb - 83f
12:40pm  -   -   -  20 25 mph 1014.6mb 84f 83f
12:30pm  -   -   -  20 25 mph 1014.5mb 84f 83f
12:20pm  -   -   -  18 22 mph 1014.5mb 84f 82f
12:10pm  -   -   -  18 22 mph 1014.5mb 84f 82f
12:00pm  -   -   -  18 22 mph 1014.4mb 84f 81f
11:50am 6ft 8s 6s 20 27 mph 1014.3mb 84f 80f
11:40am 6ft  -  6s 25 31 mph 1014mb 84f 80f
11:30am  -   -   -  20 31 mph 1014mb 84f 81f
11:20am  -   -   -  20 25 mph 1013.9mb 84f 82f
11:10am  -   -   -  20 25 mph 1013.6mb 84f 82f
11:00am  -   -   -  20 27 mph 1013.5mb 84f 82f
10:50am 6ft 8s 6s 20 25 mph 1013.3mb 84f 82f
10:40am 6ft  -  6s 18 22 mph 1013mb 84f 82f
10:30am  -   -   -  20 22 mph 1013mb 84f 82f
10:20am  -   -   -  18 22 mph 1013mb 84f 82f
10:10am  -   -   -  18 22 mph 1013mb 84f 82f
10:00am  -   -   -  18 22 mph 1012.8mb 84f 82f
9:50am 6.5ft 8s 6s 18 22 mph 1012.6mb 84f 82f
9:40am 6.5ft  -  6s 18 22 mph 1012.6mb 84f 82f
9:30am  -   -   -  18 25 mph 1012.5mb 84f 82f
9:20am  -   -   -  18 22 mph 1012.5mb 84f 82f
9:10am  -   -   -  16 20 mph 1012.5mb 84f 82f
9:00am  -   -   -  16 20 mph 1012.5mb 84f 81f
8:50am 6ft 8s 5s 20 25 mph 1012.5mb 84f 82f
8:40am  -   -   -  20 25 mph 1012.3mb 84f 82f
8:30am  -   -   -  18 22 mph 1012.1mb 84f 82f
8:20am  -   -   -  18 22 mph 1012.1mb 84f 82f
8:10am  -   -   -  18 20 mph 1012mb 84f 82f
8:00am  -   -   -  18 20 mph 1012mb 84f 82f
7:50am 6ft 8s 5s 18 22 mph 1012mb 84f 82f
7:40am  -   -   -  20 25 mph 1012mb 84f 82f
7:30am  -   -   -  18 22 mph 1012mb 84f 82f
7:20am  -   -   -  18 22 mph 1011.9mb 84f 82f
7:10am  -   -   -  18 22 mph 1011.9mb 84f 82f
7:00am  -   -   -  16 20 mph 1012mb 84f 81f
6:50am 6ft 8s 6s 16 22 mph 1012.1mb 84f 81f
6:40am 6ft  -  6s 18 27 mph 1012.3mb 84f 82f
6:30am  -   -   -  16 20 mph 1012.4mb 84f 82f
6:20am  -   -   -  18 20 mph 1012.5mb 84f 82f
6:10am  -   -   -  18 22 mph 1012.5mb 84f 82f
6:00am  -   -   -  18 22 mph 1012.5mb 84f 82f
5:50am 6.5ft 8s 6s 18 22 mph 1012.6mb 84f 82f
5:40am 6.5ft  -  6s 16 20 mph 1012.8mb 84f 82f
5:30am  -   -   -  16 20 mph 1012.9mb 84f 82f
5:20am  -   -   -  16 20 mph 1013mb 84f 82f
5:10am  -   -   -  16 22 mph 1013mb 84f 82f
5:00am  -   -   -  18 22 mph 1013.1mb 84f 83f
4:50am 6.5ft 8s 6s 18 22 mph 1013.4mb 84f 82f
4:40am 6.5ft  -  6s 18 22 mph 1013.5mb 84f 82f
4:30am  -   -   -  18 22 mph 1013.6mb 84f 82f
4:20am  -   -   -  18 22 mph 1013.6mb 84f 82f
4:10am  -   -   -  18 22 mph 1013.8mb 84f 82f
4:00am  -   -   -  18 25 mph 1014mb 84f 82f
3:50am 6ft 8s 6s 18 22 mph 1014mb 84f 83f
3:40am 6ft  -  6s 18 22 mph 1014mb 84f 83f
3:30am  -   -   -  18 20 mph 1014.1mb 84f 82f
3:20am  -   -   -  16 20 mph 1014.3mb 84f 82f
3:10am  -   -   -  16 20 mph 1014.4mb 84f 82f
3:00am  -   -   -  18 22 mph 1014.5mb 84f 82f
2:50am 7ft 8s 6s 18 25 mph 1014.4mb 84f 83f
2:40am 7ft  -  6s 18 22 mph 1014.4mb 84f 83f
2:30am  -   -   -  18 22 mph 1014.5mb 84f 83f
2:20am  -   -   -  18 22 mph 1014.5mb 84f 83f
2:10am  -   -   -  18 22 mph 1014.5mb 84f 83f
2:00am  -   -   -  18 22 mph 1014.5mb 84f 82f
1:50am 6ft 8s 6s 18 22 mph 1014.5mb 84f 82f
1:40am 6ft  -  6s 16 20 mph 1014.6mb 84f 82f
1:30am  -   -   -  18 22 mph 1014.6mb 84f 82f
1:20am  -   -   -  18 22 mph 1014.6mb 84f 82f
1:10am  -   -   -  18 22 mph 1014.6mb 84f 82f
1:00am  -   -   -  18 22 mph 1014.6mb 84f 82f
12:50am 7ft 8s 6s 16 20 mph 1014.6mb 84f 82f
12:40am 7ft  -  6s 16 22 mph 1014.5mb 84f 82f
12:30am  -   -   -  16 20 mph 1014.4mb 84f 82f
12:20am  -   -   -  16 20 mph 1014.4mb 84f 82f
12:10am  -   -   -  16 20 mph 1014.5mb 84f 82f
12:00am  -   -   -  16 20 mph 1014.3mb 84f 82f
Fri 09/30 11:50pm 6.5ft 8s 6s 16 20 mph 1014.3mb 84f 82f
11:10pm  -   -   -  16 20 mph 1013.8mb 84f 82f
11:00pm  -   -   -  16 20 mph 1013.8mb 84f 82f
10:50pm 6.5ft 8s 6s 18 20 mph 1013.8mb 84f 82f
10:40pm 6.5ft  -  6s 18 20 mph 1013.6mb 84f 82f
10:30pm  -   -   -  18 22 mph 1013.5mb 84f 82f
10:20pm  -   -   -  16 20 mph 1013.5mb 84f 82f
10:10pm  -   -   -  16 20 mph 1013.4mb 84f 82f
10:00pm  -   -   -  18 22 mph 1013.3mb 84f 82f
9:50pm 6.5ft 8s 6s 18 22 mph 1013.3mb 84f 83f
9:40pm 6.5ft  -  6s 16 20 mph 1013.4mb 84f 83f
9:30pm  -   -   -  18 22 mph 1013.5mb 84f 83f
9:20pm  -   -   -  18 20 mph 1013.5mb 84f 83f
9:10pm  -   -   -  16 20 mph 1013.5mb 84f 83f
9:00pm  -   -   -  16 20 mph 1013.5mb 84f 83f
8:50pm 6.5ft 8s 6s 16 20 mph 1013.5mb 84f 83f
8:40pm 6.5ft  -  6s 16 20 mph 1013.5mb 84f 83f
8:30pm  -   -   -  16 20 mph 1013.5mb 84f 83f
8:20pm  -   -   -  16 20 mph 1013.4mb 84f 83f
8:10pm  -   -   -  16 20 mph 1013.5mb 84f 83f
8:00pm  -   -   -  16 20 mph 1013.4mb 84f 83f
7:50pm 7ft 7s 6s 16 20 mph 1013.4mb 84f 83f
7:40pm 7ft  -  6s 16 20 mph 1013.4mb 84f 83f
7:30pm  -   -   -  16 20 mph 1013.4mb 84f 83f
7:20pm  -   -   -  16 20 mph 1013.5mb 84f 83f
7:10pm  -   -   -  16 20 mph 1013.5mb 84f 83f
7:00pm  -   -   -  16 20 mph 1013.5mb 84f 83f
6:50pm 6.5ft 8s 6s 16 20 mph 1013.5mb 84f 83f
6:40pm 6.5ft  -  6s 16 20 mph 1013.6mb 84f 83f
6:30pm  -   -   -  16 18 mph 1013.8mb 84f 83f
6:20pm  -   -   -  16 20 mph 1013.9mb 84f 83f
6:10pm  -   -   -  16 20 mph 1014mb 84f 83f
6:00pm  -   -   -  16 20 mph 1014mb 84f 83f
5:50pm 7ft 8s 6s 16 20 mph 1014.1mb 84f 83f
5:40pm  -   -   -  16 22 mph 1014mb 84f 83f
5:30pm  -   -   -  18 22 mph 1014mb 84f 83f
5:20pm  -   -   -  16 22 mph 1014.3mb 84f 83f
5:10pm  -   -   -  16 20 mph 1014.3mb 84f 83f
5:00pm  -   -   -  16 20 mph 1014.5mb 84f 83f
4:50pm 6ft 8s 6s 16 20 mph 1014.5mb 84f 83f
4:40pm 6ft  -  6s 18 20 mph 1014.8mb 84f 83f
4:30pm  -   -   -  18 20 mph 1014.8mb 84f 83f
4:20pm  -   -   -  18 22 mph 1015mb 84f 83f
4:10pm  -   -   -  18 20 mph 1015mb 84f 83f
4:00pm  -   -   -  16 22 mph 1015.1mb 84f 83f
3:50pm 6ft 8s 6s 18 20 mph 1015.4mb 84f 83f
3:40pm 6ft  -  6s 16 22 mph 1015.5mb 84f 83f
3:30pm  -   -   -  13 18 mph 1015.6mb 84f 83f
3:20pm  -   -   -  13 18 mph 1015.6mb 84f 83f
3:10pm  -   -   -  16 20 mph 1015.6mb 84f 82f
3:00pm  -   -   -  18 22 mph 1015.8mb 84f 82f
2:50pm 7ft 8s 6s 18 25 mph 1015.9mb 84f 83f
2:40pm  -   -   -  18 22 mph 1016mb 84f 83f
2:30pm  -   -   -  20 25 mph 1016mb 84f 83f
2:20pm  -   -   -  20 25 mph 1016mb 84f 83f
2:10pm  -   -   -  18 22 mph 1015.9mb 84f 83f
2:00pm  -   -   -  18 22 mph 1015.9mb 84f 83f
1:50pm 6.5ft 8s 6s 18 22 mph 1016mb 84f 83f
1:40pm 6.5ft  -  6s 20 25 mph 1016mb 84f 83f
1:30pm  -   -   -  20 25 mph 1015.9mb 84f 83f
1:20pm  -   -   -  20 25 mph 1015.6mb 84f 83f
1:10pm  -   -   -  20 25 mph 1015.6mb 84f 83f
1:00pm  -   -   -  20 25 mph 1015.6mb 84f 83f
12:50pm 7ft 7s 6s 22 27 mph 1015.5mb 84f 83f
12:40pm 7ft  -  6s 20 25 mph 1015.5mb 84f 83f
12:30pm  -   -   -  20 25 mph 1015.5mb 84f 83f
12:20pm  -   -   -  20 25 mph 1015.5mb 84f 83f
12:10pm  -   -   -  20 25 mph 1015.5mb 84f 83f
12:00pm  -   -   -  20 25 mph 1015.3mb 84f 83f
11:50am 6ft 8s 6s 20 27 mph 1015.1mb 84f 83f
11:40am 6ft  -  6s 20 27 mph 1015.1mb 84f -
11:30am  -   -   -  20 27 mph 1015.1mb 84f 83f
11:20am  -   -   -  20 25 mph 1015mb 84f 83f
11:10am  -   -   -  22 27 mph 1015mb 84f 83f
11:00am  -   -   -  20 25 mph 1014.9mb 84f 83f
10:50am 6.5ft 9s 6s 20 27 mph 1014.8mb 84f 83f
10:40am 6.5ft  -  6s 18 25 mph 1014.9mb 84f 83f
10:30am  -   -   -  18 25 mph 1014.8mb 84f 83f
10:20am  -   -   -  20 25 mph 1014.6mb 84f 83f
10:10am  -   -   -  20 25 mph 1014.6mb 84f 82f
10:00am  -   -   -  18 22 mph 1014.5mb 84f 82f
9:50am 6.5ft 8s 6s 18 25 mph 1014.6mb 84f 82f
9:40am 6.5ft  -  6s 20 25 mph 1014.6mb 84f 83f
9:30am  -   -   -  20 25 mph 1014.5mb 84f 83f
9:20am  -   -   -  18 22 mph 1014.5mb 84f 83f
9:10am  -   -   -  18 22 mph 1014.5mb 84f 83f
9:00am  -   -   -  20 25 mph 1014.5mb 84f 83f
8:50am 6.5ft 8s 6s 18 22 mph 1014.5mb 84f 83f
8:40am 6.5ft  -  6s 18 22 mph 1014.5mb 84f 83f
8:30am  -   -   -  18 22 mph 1014.5mb 84f 83f
8:20am  -   -   -  18 22 mph 1014.4mb 84f 83f
8:10am  -   -   -  18 25 mph 1014.4mb 84f 83f
8:00am  -   -   -  18 22 mph 1014.4mb 84f 83f
7:50am 7ft 8s 6s 18 22 mph 1014.4mb 84f 83f
7:40am 7ft  -  6s 18 25 mph 1014.4mb 84f 83f
7:30am  -   -   -  18 22 mph 1014.4mb 84f 83f
7:20am  -   -   -  18 22 mph 1014.4mb 84f 83f
7:10am  -   -   -  18 22 mph 1014.4mb 84f 83f
7:00am  -   -   -  18 22 mph 1014.4mb 84f 83f
6:50am 6ft 8s 6s 18 25 mph 1014.5mb 84f 83f
6:40am 6ft  -  6s 18 22 mph 1014.5mb 84f 83f
6:30am  -   -   -  18 22 mph 1014.6mb 84f 83f
6:20am  -   -   -  18 22 mph 1014.6mb 84f 83f
6:10am  -   -   -  18 22 mph 1014.9mb 84f 83f
6:00am  -   -   -  20 25 mph 1015mb 84f 83f
5:50am 6.5ft 9s 6s 18 25 mph 1015mb 84f 83f
5:40am 6.5ft  -  6s 18 22 mph 1015mb 84f 83f
5:30am  -   -   -  20 25 mph 1015mb 84f 83f
5:20am  -   -   -  18 22 mph 1015.1mb 84f 83f
5:10am  -   -   -  20 25 mph 1015.1mb 84f 83f
5:00am  -   -   -  18 22 mph 1015.3mb 84f 83f
4:50am 6.5ft 8s 6s 18 22 mph 1015.5mb 84f 83f
4:40am 6.5ft  -  6s 18 22 mph 1015.6mb 84f 83f
4:30am  -   -   -  18 22 mph 1015.9mb 84f 83f
4:20am  -   -   -  18 22 mph 1016mb 84f 83f
4:10am  -   -   -  18 22 mph 1016.1mb 84f 83f
4:00am  -   -   -  18 20 mph 1016.3mb 84f 83f
3:50am 6ft 8s 6s 18 20 mph 1016.4mb 84f 83f
3:40am 6ft  -  6s 18 22 mph 1016.5mb 84f 83f
3:30am  -   -   -  16 20 mph 1016.5mb 84f 83f
3:20am  -   -   -  16 20 mph 1016.5mb 84f 83f
3:10am  -   -   -  18 22 mph 1016.6mb 84f 83f
3:00am  -   -   -  20 22 mph 1016.8mb 84f 83f
2:50am 6ft 9s 6s 18 22 mph 1016.8mb 84f 83f
2:40am 6ft  -  6s 18 22 mph 1016.8mb 84f 83f
2:30am  -   -   -  20 25 mph 1016.9mb 84f 83f
2:20am  -   -   -  18 22 mph 1017mb 84f 83f
2:10am  -   -   -  18 22 mph 1017mb 84f 83f
2:00am  -   -   -  18 22 mph 1017.3mb 84f 83f
1:50am 6ft 7s 6s 18 22 mph 1017.3mb 84f 83f
1:40am 6ft  -  6s 18 22 mph 1017.3mb 84f 83f
1:30am  -   -   -  18 22 mph 1017.3mb 84f 83f
1:20am  -   -   -  16 20 mph 1017.3mb 84f 82f
1:10am  -   -   -  16 22 mph 1017.5mb 84f 82f
1:00am  -   -   -  18 20 mph 1017.5mb 84f 83f
12:50am 6ft 9s 6s 18 22 mph 1017.5mb 84f 83f
12:40am 6ft  -  6s 18 22 mph 1017.5mb 84f 83f
12:30am  -   -   -  18 22 mph 1017.4mb 84f 83f
12:20am  -   -   -  16 22 mph 1017.4mb 84f 83f
12:10am  -   -   -  16 18 mph 1017.4mb 84f 82f
12:00am  -   -   -  13 18 mph 1017.1mb 84f 81f
Thu 09/29 11:50pm 7ft 9s 6s 16 22 mph 1017.1mb 84f 82f
11:40pm 7ft  -  6s 16 25 mph 1017mb 84f 80f
11:30pm  -   -   -  16 29 mph 1017.1mb 84f 80f
11:20pm  -   -   -  22 29 mph 1017mb 84f 82f
11:10pm  -   -   -  16 20 mph 1016.6mb 84f 83f
11:00pm  -   -   -  16 22 mph 1016.6mb 84f 83f
10:50pm 6ft 8s 6s 18 22 mph 1016.5mb 84f 83f
10:40pm  -   -   -  16 20 mph 1016.5mb 84f 83f
10:30pm  -   -   -  16 20 mph 1016.5mb 84f 83f
10:20pm  -   -   -  16 20 mph 1016.4mb 84f 83f
10:10pm  -   -   -  16 22 mph 1016.4mb 84f 83f
10:00pm  -   -   -  16 20 mph 1016.3mb 84f 83f
9:50pm 7ft 8s 6s 18 22 mph 1016.3mb 84f 83f
9:40pm 7ft  -  6s 18 22 mph 1016.3mb 84f 83f
9:30pm  -   -   -  18 20 mph 1016.1mb 84f 83f
9:20pm  -   -   -  18 20 mph 1016.1mb 84f 83f
9:10pm  -   -   -  18 20 mph 1016.3mb 84f 83f
9:00pm  -   -   -  18 20 mph 1016.3mb 84f 83f
8:50pm 7ft 9s 6s 18 22 mph 1016.4mb 84f 83f
8:40pm 7ft  -  6s 18 22 mph 1016.3mb 84f 83f
8:30pm  -   -   -  18 22 mph 1016.1mb 84f 83f
8:20pm  -   -   -  18 22 mph 1016.1mb 84f 84f
8:10pm  -   -   -  18 25 mph 1016mb 84f 83f
8:00pm  -   -   -  18 20 mph 1016.1mb 84f 84f
7:50pm 7ft 8s 6s 18 22 mph 1016mb 84f 84f
7:40pm 7ft  -  6s 18 22 mph 1016.1mb 84f 84f
7:30pm  -   -   -  18 22 mph 1016.1mb 84f 84f
7:20pm  -   -   -  18 22 mph 1016.3mb 84f 84f
7:10pm  -   -   -  18 20 mph 1016.3mb 84f 84f
7:00pm  -   -   -  18 25 mph 1016.3mb 84f 83f
6:50pm 7ft 8s 6s 18 22 mph 1016.3mb 84f 83f
6:40pm 7ft  -  6s 20 22 mph 1016.3mb 84f 83f
6:30pm  -   -   -  18 22 mph 1016.5mb 84f 84f
6:20pm  -   -   -  20 25 mph 1016.5mb 84f 84f
6:10pm  -   -   -  20 25 mph 1016.6mb 84f 84f
6:00pm  -   -   -  20 25 mph 1016.5mb 84f 83f
5:50pm 7ft 8s 6s 18 22 mph 1016.6mb 84f 83f
5:40pm  -   -   -  18 22 mph 1016.9mb 84f 83f
5:30pm  -   -   -  16 20 mph 1017mb 84f 83f
5:20pm  -   -   -  16 20 mph 1017mb 84f 83f
5:10pm  -   -   -  16 20 mph 1017mb 84f 83f
5:00pm  -   -   -  18 22 mph 1017.1mb 84f 83f
4:50pm 7ft 9s 6s 18 22 mph 1017.3mb 84f 82f
4:40pm 7ft  -  6s 20 25 mph 1017.3mb 84f 83f
4:30pm  -   -   -  18 22 mph 1017.5mb 84f 83f
4:20pm  -   -   -  18 22 mph 1017.5mb 84f 83f
4:10pm  -   -   -  16 20 mph 1017.6mb 84f 83f
4:00pm  -   -   -  18 20 mph 1017.8mb 84f 83f
3:50pm 7ft 8s 6s 16 20 mph 1017.9mb 84f 83f
3:40pm 7ft  -  6s 18 20 mph 1018mb 84f 83f
3:30pm  -   -   -  16 20 mph 1018mb 84f 84f
3:20pm  -   -   -  18 20 mph 1018.1mb 84f 83f
3:10pm  -   -   -  16 20 mph 1018.1mb 84f 83f
3:00pm  -   -   -  16 20 mph 1018.3mb 84f 83f
2:50pm 7ft 9s 6s 18 22 mph 1018.4mb 84f 83f
2:40pm  -   -   -  18 20 mph 1018.5mb 84f 83f
2:30pm  -   -   -  16 20 mph 1018.6mb 84f 83f
2:20pm  -   -   -  16 20 mph 1018.6mb 84f 83f
2:10pm  -   -   -  18 22 mph 1018.8mb 84f 83f
2:00pm  -   -   -  16 20 mph 1018.9mb 84f 83f
1:50pm 8ft 9s 7s 16 18 mph 1019mb 84f 83f
1:40pm 8ft  -  7s 16 18 mph 1019mb 84f 83f
1:30pm  -   -   -  16 18 mph 1019mb 84f 83f
1:20pm  -   -   -  16 18 mph 1019.1mb 84f 83f
1:10pm  -   -   -  16 18 mph 1019mb 84f 83f
1:00pm  -   -   -  16 18 mph 1019mb 84f 83f
12:50pm 7.5ft 9s 6s 16 20 mph 1019mb 84f 83f
12:40pm 7.5ft  -  6s 16 20 mph 1019mb 84f 83f
12:30pm  -   -   -  16 20 mph 1018.9mb 84f 83f
12:20pm  -   -   -  16 20 mph 1018.9mb 84f 83f
12:10pm  -   -   -  18 20 mph 1019.4mb - 83f
12:00pm  -   -   -  16 20 mph 1018.9mb 84f 83f
11:50am 8ft 9s 7s 16 20 mph 1018.8mb 84f 83f
11:40am 8ft  -  7s 18 20 mph 1018.6mb 84f 83f
11:30am  -   -   -  18 22 mph 1018.6mb 84f 83f
11:20am  -   -   -  18 22 mph 1018.5mb 84f 83f
11:10am  -   -   -  18 22 mph 1018.4mb 84f 83f
11:00am  -   -   -  18 22 mph 1018.3mb 84f 83f
10:50am 8ft 9s 7s 18 22 mph 1018.1mb 84f 83f
10:40am 8ft  -  7s 18 22 mph 1018mb 84f 83f
10:30am  -   -   -  18 22 mph 1018mb 84f 83f
10:20am  -   -   -  18 22 mph 1018mb 84f 83f
10:10am  -   -   -  18 22 mph 1018mb 84f 83f
10:00am  -   -   -  18 22 mph 1018mb 84f 83f
9:50am 8ft 9s 6s 20 22 mph 1017.9mb 84f 83f
9:40am  -   -   -  18 22 mph 1017.8mb 84f 83f
9:30am  -   -   -  18 22 mph 1017.9mb 84f 83f
9:20am  -   -   -  18 22 mph 1017.8mb 84f 83f
9:10am  -   -   -  18 22 mph 1017.8mb 84f 83f
9:00am  -   -   -  18 22 mph 1017.8mb 84f 83f
8:50am 8ft 10s 6s 18 22 mph 1017.6mb 84f 83f
8:40am 8ft  -  6s 18 22 mph 1017.5mb 84f 83f
8:30am  -   -   -  18 25 mph 1017.6mb 84f 83f
8:20am  -   -   -  20 22 mph 1017.5mb 84f 83f
8:10am  -   -   -  20 22 mph 1017.5mb 84f 83f
8:00am  -   -   -  20 25 mph 1017.5mb 84f 83f
7:50am 8.5ft 9s 7s 20 25 mph 1017.5mb 84f 83f
7:40am  -   -   -  20 25 mph 1017.5mb 84f 83f
7:30am  -   -   -  20 25 mph 1017.5mb 84f 83f
7:20am  -   -   -  20 27 mph 1017.5mb 84f 83f
7:10am  -   -   -  20 25 mph 1017.5mb 84f 83f
7:00am  -   -   -  20 22 mph 1017.5mb 84f 83f
6:50am 8.5ft 10s 7s 20 25 mph 1017.8mb 84f 83f
6:40am 8.5ft  -  7s 18 22 mph 1017.9mb 84f 83f
6:30am  -   -   -  18 22 mph 1018mb 84f 83f
6:20am  -   -   -  18 22 mph 1018mb 84f 83f
6:10am  -   -   -  18 22 mph 1018.1mb 84f 83f
6:00am  -   -   -  18 22 mph 1018.3mb 84f 83f
5:50am 8.5ft 9s 7s 18 22 mph 1018.4mb 84f 83f
5:40am 8.5ft  -  7s 18 22 mph 1018.5mb 84f 83f
5:30am  -   -   -  18 22 mph 1018.5mb 84f 83f
5:20am  -   -   -  18 22 mph 1018.6mb 84f 83f
5:10am  -   -   -  18 22 mph 1018.8mb 84f 83f
5:00am  -   -   -  18 22 mph 1019mb 84f 83f
4:50am 10ft 10s 7s 20 25 mph 1019.3mb 84f 83f
4:40am 10ft  -  7s 20 25 mph 1019.4mb 84f 83f
4:30am  -   -   -  20 22 mph 1019.5mb 84f 83f
4:20am  -   -   -  20 25 mph 1019.5mb 84f 83f
4:10am  -   -   -  20 27 mph 1019.5mb 84f 83f
4:00am  -   -   -  20 27 mph 1019.6mb 84f 83f
3:50am 10ft 9s 7s 20 25 mph 1019.8mb 84f 83f
3:40am 10ft  -  7s 20 27 mph 1019.8mb 84f 83f
3:30am  -   -   -  22 25 mph 1019.8mb 84f 83f
3:20am  -   -   -  22 27 mph 1020mb 84f 83f
3:10am  -   -   -  22 27 mph 1020mb 84f 83f
3:00am  -   -   -  20 25 mph 1020.3mb 84f 83f
2:50am 10ft 10s 7s 20 27 mph 1020.4mb 84f 84f
2:40am 10ft  -  7s 22 27 mph 1020.5mb 84f 84f
2:30am  -   -   -  22 29 mph 1020.5mb 84f 84f
2:20am  -   -   -  22 27 mph 1020.5mb 84f 83f
2:10am  -   -   -  22 27 mph 1020.5mb 84f 84f
2:00am  -   -   -  22 27 mph 1020.5mb 84f 84f
1:50am 10ft 10s 7s 20 27 mph 1020.5mb 84f 84f
1:40am 10ft  -  7s 22 27 mph 1020.5mb 84f 84f
1:30am  -   -   -  22 27 mph 1020.5mb 84f 84f
1:20am  -   -   -  22 27 mph 1020.5mb 84f 84f
1:10am  -   -   -  22 27 mph 1020.4mb 84f 84f
1:00am  -   -   -  20 25 mph 1020.3mb 84f 84f
12:50am 9.5ft  -  7s 22 27 mph 1020.1mb 84f 84f
12:40am 9.5ft 9s  -   -  mph - - -
12:30am  -   -   -  22 27 mph 1020.1mb 84f 84f
12:20am  -   -   -  22 27 mph 1020.1mb 84f 84f
12:10am  -   -   -  22 29 mph 1020mb 84f 84f
12:00am  -   -   -  20 27 mph 1020mb 84f 84f
Wed 09/28 11:50pm 9.5ft 9s 7s 20 25 mph 1020mb 84f 84f
11:40pm 9.5ft  -  7s 22 27 mph 1019.9mb 84f 84f
11:30pm  -   -   -  20 25 mph 1019.8mb 84f 84f
11:20pm  -   -   -  20 27 mph 1019.6mb 84f 84f
11:10pm  -   -   -  20 25 mph 1019.6mb 84f 84f
11:00pm  -   -   -  20 25 mph 1019.6mb 84f 84f
10:50pm 9ft 9s 7s 20 25 mph 1019.5mb 84f 84f
10:40pm 9ft  -  7s 20 27 mph 1019.5mb 84f 84f
10:30pm  -   -   -  20 27 mph 1019.5mb 84f 84f
10:20pm  -   -   -  22 27 mph 1019.4mb 84f 84f
10:10pm  -   -   -  22 27 mph 1019.3mb 84f 84f
10:00pm  -   -   -  20 25 mph 1019.3mb 84f 84f
9:50pm 9ft 8s 7s 20 25 mph 1019.1mb 84f 84f
9:40pm 9ft  -  7s 20 25 mph 1019.1mb 84f 84f
9:30pm  -   -   -  20 27 mph 1019mb 84f 84f
9:20pm  -   -   -  20 27 mph 1019mb 84f 84f
9:10pm  -   -   -  20 25 mph 1019mb 84f 84f
9:00pm  -   -   -  22 27 mph 1019mb 84f 84f
8:50pm 8ft 8s 6s 22 27 mph 1019mb 84f 84f
8:40pm 8ft  -  6s 22 27 mph 1019mb 84f 84f
8:30pm  -   -   -  22 27 mph 1018.9mb 84f 84f
8:20pm  -   -   -  22 27 mph 1018.8mb 84f 84f
8:10pm  -   -   -  22 27 mph 1018.6mb 84f 84f
8:00pm  -   -   -  22 29 mph 1018.6mb 84f 84f
7:50pm 8.5ft 8s 6s 22 29 mph 1018.6mb 84f 84f
7:40pm 8.5ft  -  6s 20 25 mph 1018.8mb 84f 84f
7:30pm  -   -   -  20 25 mph 1018.6mb 84f 84f
7:20pm  -   -   -  20 25 mph 1018.6mb 84f 84f
7:10pm  -   -   -  20 25 mph 1018.5mb 84f 84f
7:00pm  -   -   -  18 22 mph 1018.6mb 84f 84f
6:50pm 7.5ft 8s 6s 18 25 mph 1018.8mb 84f 84f
6:40pm 7.5ft  -  6s 20 25 mph 1018.6mb 84f 84f
6:30pm  -   -   -  20 25 mph 1018.9mb 84f 84f
6:20pm  -   -   -  18 22 mph 1018.8mb 84f 84f
6:10pm  -   -   -  20 25 mph 1018.8mb 84f 84f
6:00pm  -   -   -  20 25 mph 1018.8mb 84f 84f
5:50pm 7.5ft 7s 6s 20 25 mph 1018.8mb 84f 84f
5:40pm 7.5ft  -  6s 20 25 mph 1018.8mb 84f 84f
5:30pm  -   -   -  18 25 mph 1018.9mb 84f 84f
5:20pm  -   -   -  18 22 mph 1018.9mb 84f 84f
5:10pm  -   -   -  20 25 mph 1018.9mb 84f 84f
5:00pm  -   -   -  20 25 mph 1019mb 84f 84f
4:50pm 7ft 8s 6s 20 25 mph 1019mb 84f 84f
4:40pm 7ft  -  6s 20 25 mph 1019mb 84f 84f
4:30pm  -   -   -  20 25 mph 1019mb 84f 84f
4:20pm  -   -   -  20 25 mph 1019mb 84f 84f
4:10pm  -   -   -  20 25 mph 1019.1mb 84f 84f
4:00pm  -   -   -  20 25 mph 1019.4mb 84f 84f
3:50pm 7ft 8s 6s 20 27 mph 1019.5mb 84f 84f
3:40pm 7ft  -  6s 18 22 mph 1019.5mb 84f 84f
3:30pm  -   -   -  18 22 mph 1019.6mb 84f 84f
3:20pm  -   -   -  20 22 mph 1019.8mb 84f 84f
3:10pm  -   -   -  20 25 mph 1019.8mb 84f 84f
3:00pm  -   -   -  20 25 mph 1020mb 84f 84f
2:50pm 7.5ft 8s 6s 18 20 mph 1020mb 84f 84f
2:40pm  -   -   -  18 22 mph 1020mb 84f 84f
2:30pm  -   -   -  18 22 mph 1020mb 84f 84f
2:20pm  -   -   -  20 25 mph 1020mb 84f 84f
2:10pm  -   -   -  20 25 mph 1020mb 84f 84f
2:00pm  -   -   -  20 25 mph 1020mb 84f 84f
1:50pm 7ft 7s 6s 20 25 mph 1020mb 84f 84f
1:40pm 7ft  -  6s 20 25 mph 1020mb 84f 84f
1:30pm  -   -   -  18 22 mph 1020mb 84f 84f
1:20pm  -   -   -  18 22 mph 1020mb 84f 84f
1:10pm  -   -   -  20 22 mph 1020mb 84f 84f
1:00pm  -   -   -  18 22 mph 1020.1mb 84f 84f
12:50pm 7ft 7s 6s 20 22 mph 1020.1mb 84f 84f
12:40pm  -   -   -  18 22 mph 1020mb 84f 84f
12:30pm  -   -   -  20 25 mph 1020mb 84f 84f
12:20pm  -   -   -  18 25 mph 1019.8mb 84f 84f
12:10pm  -   -   -  20 25 mph 1019.6mb 84f 84f
12:00pm  -   -   -  18 22 mph 1019.5mb 84f 84f
11:50am 7ft 7s 6s 20 25 mph 1019.5mb 84f 84f
11:40am 7ft  -  6s 20 22 mph 1019.3mb 84f 84f
11:30am  -   -   -  20 25 mph 1019.3mb 84f 84f
11:20am  -   -   -  20 25 mph 1019mb 84f 84f
11:10am  -   -   -  18 22 mph 1019mb 84f 84f
11:00am  -   -   -  20 27 mph 1019mb 84f 84f
10:50am 7ft 7s 6s 20 25 mph 1018.8mb 84f 84f
10:40am 7ft  -  6s 20 25 mph 1018.6mb 84f 84f
10:30am  -   -   -  20 27 mph 1018.5mb 84f 83f
10:20am  -   -   -  22 27 mph 1018.5mb 84f 83f
10:10am  -   -   -  20 27 mph 1018.5mb 84f 83f
10:00am  -   -   -  20 25 mph 1018.4mb 84f 83f
9:50am 7ft 7s 5s 20 25 mph 1018.4mb 84f 83f
9:40am 7ft  -  5s 20 22 mph 1018.3mb 84f 83f
9:30am  -   -   -  20 25 mph 1018.3mb 84f 84f
9:20am  -   -   -  20 27 mph 1018.3mb 84f 83f
9:10am  -   -   -  20 25 mph 1018.1mb 84f 84f
9:00am  -   -   -  22 27 mph 1018.1mb 84f 83f
8:50am 7ft 6s 6s 22 27 mph 1018mb 84f 83f
8:40am  -   -   -  22 27 mph 1017.9mb 84f 83f
8:30am  -   -   -  22 27 mph 1017.8mb 84f 83f
8:20am  -   -   -  22 27 mph 1017.6mb 84f 83f
8:10am  -   -   -  22 29 mph 1017.6mb 84f 83f
8:00am  -   -   -  22 27 mph 1017.5mb 84f 83f
7:50am 7ft 7s 6s 20 27 mph 1017.6mb 84f 84f
7:40am  -   -   -  25 31 mph 1017.5mb 84f 83f
7:30am  -   -   -  22 27 mph 1017.6mb 84f 83f
7:20am  -   -   -  22 27 mph 1017.6mb 84f 83f
7:10am  -   -   -  20 25 mph 1017.8mb 84f 83f
7:00am  -   -   -  22 27 mph 1017.8mb 84f 83f
6:50am 6.5ft 6s 5s 22 27 mph 1017.8mb 84f 83f
6:40am  -   -   -  22 27 mph 1017.9mb 84f 84f
6:30am  -   -   -  22 29 mph 1017.9mb 84f 84f
6:20am  -   -   -  25 29 mph 1017.9mb 84f 83f
6:10am  -   -   -  22 27 mph 1018mb 84f 84f
6:00am  -   -   -  22 27 mph 1017.9mb 84f 84f
5:50am 6.5ft 6s 5s 22 29 mph 1018mb 84f 83f
5:40am 6.5ft  -  5s 20 27 mph 1018mb 84f 84f
5:30am  -   -   -  22 27 mph 1018mb 84f 83f
5:20am  -   -   -  22 27 mph 1018mb 84f 83f
5:10am  -   -   -  22 27 mph 1018mb 84f 83f
5:00am  -   -   -  22 27 mph 1018mb 84f 83f
4:50am 6.5ft 10s 6s 22 27 mph 1018.1mb 84f 83f
4:40am 6.5ft  -  6s 20 25 mph 1018.1mb 84f 83f
4:30am  -   -   -  20 25 mph 1018.1mb 84f 83f
4:20am  -   -   -  22 25 mph 1018.1mb 84f 83f
4:10am  -   -   -  20 25 mph 1018mb 84f 83f
4:00am  -   -   -  20 25 mph 1018mb 84f 83f
3:50am 6ft 9s 6s 20 25 mph 1018.1mb 84f 83f
3:40am 6ft  -  6s 20 25 mph 1018.3mb 84f 83f
3:30am  -   -   -  20 27 mph 1018.4mb 84f 83f
3:20am  -   -   -  20 27 mph 1018.5mb 84f 83f
3:10am  -   -   -  22 27 mph 1018.5mb 84f 83f
3:00am  -   -   -  20 27 mph 1018.6mb 84f 83f
2:50am 5.5ft 10s 5s 22 27 mph 1018.6mb 84f 83f
2:40am 5.5ft  -  5s 22 27 mph 1018.5mb 84f 83f
2:30am  -   -   -  22 29 mph 1018.4mb 84f 83f
2:20am  -   -   -  22 29 mph 1018.4mb 84f 83f
2:10am  -   -   -  22 29 mph 1018.4mb 84f 83f
2:00am  -   -   -  22 27 mph 1018.4mb 84f 83f
1:50am 5.5ft 9s 5s 22 27 mph 1018.4mb 84f 83f
1:40am 5.5ft  -  5s 22 25 mph 1018.5mb 84f 83f
1:30am  -   -   -  20 27 mph 1018.5mb 84f 83f
1:20am  -   -   -  20 27 mph 1018.5mb 84f 83f
1:10am  -   -   -  20 25 mph 1018.5mb 84f 83f
1:00am  -   -   -  20 25 mph 1018.4mb 84f 83f
12:50am 5ft 9s 5s 20 22 mph 1018.4mb 84f 83f
12:40am 5ft  -  5s 20 25 mph 1018.4mb 84f 83f
12:30am  -   -   -  20 25 mph 1018.4mb 84f 83f
12:20am  -   -   -  20 25 mph 1018.4mb 84f 83f
12:10am  -   -   -  18 22 mph 1018.4mb 84f 83f
12:00am  -   -   -  18 22 mph 1018.4mb 84f 83f
Tue 09/27 11:50pm 5ft 8s 5s 18 20 mph 1018.4mb 84f 83f
11:40pm  -   -   -  18 22 mph 1018.1mb 84f 83f
11:30pm  -   -   -  18 20 mph 1018mb 84f 83f
11:20pm  -   -   -  18 22 mph 1017.9mb 84f 83f
11:10pm  -   -   -  18 22 mph 1017.9mb 84f 83f
11:00pm  -   -   -  18 22 mph 1017.9mb 84f 83f
10:50pm 4.5ft 6s 5s 16 20 mph 1017.6mb 84f 83f
10:40pm 4.5ft  -  5s 18 20 mph 1017.5mb 84f 83f
10:30pm  -   -   -  18 20 mph 1017.5mb 84f 83f
10:20pm  -   -   -  16 20 mph 1017.5mb 84f 83f
10:10pm  -   -   -  16 22 mph 1017.5mb 84f 83f
10:00pm  -   -   -  16 20 mph 1017.5mb 84f 83f
9:50pm 5ft 10s 6s 16 20 mph 1017.5mb 84f 83f
9:40pm 5ft  -  6s 16 18 mph 1017.4mb 84f 83f
9:30pm  -   -   -  16 18 mph 1017.3mb 84f 83f
9:20pm  -   -   -  13 16 mph 1017.4mb 84f 83f
9:10pm  -   -   -  13 16 mph 1017.5mb 84f 84f
9:00pm  -   -   -  16 18 mph 1017.5mb 84f 84f
8:50pm 5ft 9s 6s 13 18 mph 1017.3mb 84f 84f